createdAt,value
2023-04-24T00:01:53.336Z,99869.38
2023-04-24T00:04:41.484Z,99863.78
2023-04-24T00:07:29.585Z,99855.50
2023-04-24T00:10:16.282Z,99851.38
2023-04-24T00:13:03.115Z,99853.72
2023-04-24T00:15:49.797Z,99844.81
2023-04-24T00:18:36.622Z,99836.47
2023-04-24T00:21:26.670Z,99832.97
2023-04-24T00:24:14.616Z,99822.66
2023-04-24T00:27:02.092Z,99822.06
2023-04-24T00:29:48.764Z,99819.25
2023-04-24T00:32:35.464Z,99814.09
2023-04-24T00:35:22.161Z,99821.00
2023-04-24T00:38:08.901Z,99812.34
2023-04-24T00:40:57.057Z,99802.69
2023-04-24T00:43:43.910Z,99802.06
2023-04-24T00:46:31.183Z,99796.69
2023-04-24T00:49:20.298Z,99789.28
2023-04-24T00:52:09.830Z,99785.53
2023-04-24T00:54:56.682Z,99792.66
2023-04-24T00:57:44.859Z,99791.09
2023-04-24T01:00:31.332Z,99783.97
2023-04-24T01:03:19.664Z,99781.03
2023-04-24T01:06:07.508Z,99777.03
2023-04-24T01:08:54.521Z,99768.47
2023-04-24T01:11:43.570Z,99773.53
2023-04-24T01:14:33.414Z,99768.38
2023-04-24T01:17:20.169Z,99763.63
2023-04-24T01:20:09.170Z,99762.84
2023-04-24T01:22:58.542Z,99763.78
2023-04-24T01:25:45.476Z,99752.47
2023-04-24T01:28:32.726Z,99751.53
2023-04-24T01:31:19.582Z,99755.66
2023-04-24T01:34:06.606Z,99758.38
2023-04-24T01:36:53.511Z,99751.84
2023-04-24T01:39:41.992Z,99748.56
2023-04-24T01:42:29.051Z,99750.84
2023-04-24T01:45:15.643Z,99749.59
2023-04-24T01:48:02.664Z,99765.13
2023-04-24T01:50:49.043Z,99754.81
2023-04-24T01:53:36.080Z,99758.78
2023-04-24T01:56:25.162Z,99750.59
2023-04-24T01:59:12.628Z,99748.84
2023-04-24T02:01:59.674Z,99743.09
2023-04-24T02:04:46.602Z,99737.78
2023-04-24T02:07:33.862Z,99730.81
2023-04-24T02:10:20.485Z,99721.69
2023-04-24T02:13:08.735Z,99723.34
2023-04-24T02:15:55.552Z,99714.34
2023-04-24T02:18:43.766Z,99719.06
2023-04-24T02:21:31.798Z,99716.22
2023-04-24T02:24:18.408Z,99717.25
2023-04-24T02:27:05.515Z,99718.97
2023-04-24T02:29:53.338Z,99710.91
2023-04-24T02:32:40.250Z,99713.81
2023-04-24T02:35:30.095Z,99715.00
2023-04-24T02:38:16.758Z,99717.16
2023-04-24T02:41:07.230Z,99718.00
2023-04-24T02:43:54.082Z,99706.59
2023-04-24T02:46:43.064Z,99704.06
2023-04-24T02:49:29.495Z,99700.03
2023-04-24T02:52:17.862Z,99702.00
2023-04-24T02:55:05.051Z,99706.13
2023-04-24T02:57:51.530Z,99692.41
2023-04-24T03:00:38.226Z,99701.47
2023-04-24T03:03:26.633Z,99702.31
2023-04-24T03:06:13.295Z,99698.56
2023-04-24T03:09:00.058Z,99704.69
2023-04-24T03:11:46.865Z,99699.28
2023-04-24T03:14:34.179Z,99701.25
2023-04-24T03:17:20.620Z,99692.25
2023-04-24T03:20:10.283Z,99694.47
2023-04-24T03:22:58.255Z,99694.06
2023-04-24T03:25:46.399Z,99694.84
2023-04-24T03:28:33.388Z,99693.28
2023-04-24T03:31:23.721Z,99694.41
2023-04-24T03:34:11.122Z,99693.97
2023-04-24T03:36:59.243Z,99703.13
2023-04-24T03:39:47.023Z,99707.84
2023-04-24T03:42:36.014Z,99710.25
2023-04-24T03:45:24.204Z,99710.56
2023-04-24T03:48:12.312Z,99705.25
2023-04-24T03:50:59.198Z,99707.38
2023-04-24T03:53:47.238Z,99704.91
2023-04-24T03:56:37.833Z,99704.63
2023-04-24T03:59:24.577Z,99705.31
2023-04-24T04:02:29.723Z,99705.44
2023-04-24T04:05:16.946Z,99700.69
2023-04-24T04:08:03.625Z,99698.91
2023-04-24T04:10:51.730Z,99691.88
2023-04-24T04:13:38.468Z,99707.84
2023-04-24T04:16:25.583Z,99699.22
2023-04-24T04:19:16.976Z,99702.53
2023-04-24T04:22:03.900Z,99706.91
2023-04-24T04:24:59.783Z,99700.28
2023-04-24T04:27:48.859Z,99704.44
2023-04-24T04:30:35.628Z,99698.75
2023-04-24T04:33:24.402Z,99696.94
2023-04-24T04:36:11.379Z,99689.59
2023-04-24T04:39:03.818Z,99624.63
2023-04-24T04:42:07.874Z,99690.47
2023-04-24T04:45:06.052Z,99690.00
2023-04-24T04:48:04.669Z,99696.75
2023-04-24T04:50:52.111Z,99699.50
2023-04-24T04:53:40.823Z,99695.91
2023-04-24T04:56:27.889Z,99696.91
2023-04-24T04:59:16.958Z,99695.09
2023-04-24T05:02:05.169Z,99698.25
2023-04-24T05:04:51.816Z,99701.09
2023-04-24T05:07:38.587Z,99703.84
2023-04-24T05:10:25.560Z,99707.66
2023-04-24T05:13:14.810Z,99720.38
2023-04-24T05:16:01.601Z,99713.81
2023-04-24T05:18:51.261Z,99715.91
2023-04-24T05:21:42.198Z,99718.19
2023-04-24T05:24:30.284Z,99716.03
2023-04-24T05:27:23.234Z,99721.69
2023-04-24T05:30:11.642Z,99720.34
2023-04-24T05:32:58.344Z,99714.25
2023-04-24T05:35:47.952Z,99709.94
2023-04-24T05:38:35.158Z,99715.81
2023-04-24T05:41:22.362Z,99715.00
2023-04-24T05:44:09.059Z,99724.00
2023-04-24T05:46:57.046Z,99716.94
2023-04-24T05:49:44.124Z,99716.91
2023-04-24T05:52:32.238Z,99721.72
2023-04-24T05:55:19.619Z,99721.63
2023-04-24T05:58:07.450Z,99723.31
2023-04-24T06:00:56.297Z,99724.47
2023-04-24T06:03:43.492Z,99722.78
2023-04-24T06:06:30.097Z,99724.38
2023-04-24T06:09:19.079Z,99727.97
2023-04-24T06:12:06.015Z,99720.44
2023-04-24T06:15:07.407Z,99716.19
2023-04-24T06:18:32.212Z,99726.41
2023-04-24T06:21:18.738Z,99722.91
2023-04-24T06:24:05.946Z,99725.09
2023-04-24T06:26:54.103Z,99728.59
2023-04-24T06:29:41.335Z,99728.19
2023-04-24T06:32:29.184Z,99728.69
2023-04-24T06:35:16.499Z,99724.41
2023-04-24T06:38:02.907Z,99728.22
2023-04-24T06:40:49.908Z,99731.16
2023-04-24T06:43:37.628Z,99717.13
2023-04-24T06:46:27.315Z,99723.06
2023-04-24T06:49:17.138Z,99727.84
2023-04-24T06:52:03.978Z,99720.88
2023-04-24T06:54:50.988Z,99655.88
2023-04-24T06:57:37.485Z,99730.56
2023-04-24T07:00:25.963Z,99732.09
2023-04-24T07:03:12.869Z,99724.69
2023-04-24T07:05:59.988Z,99725.97
2023-04-24T07:08:46.620Z,99724.53
2023-04-24T07:11:33.967Z,99722.09
2023-04-24T07:14:21.593Z,99716.88
2023-04-24T07:17:09.601Z,99724.13
2023-04-24T07:19:56.397Z,99715.97
2023-04-24T07:22:43.147Z,99709.59
2023-04-24T07:25:29.956Z,99719.69
2023-04-24T07:28:16.802Z,99721.66
2023-04-24T07:31:03.706Z,99725.66
2023-04-24T07:33:51.746Z,99718.47
2023-04-24T07:36:39.392Z,99719.56
2023-04-24T07:39:27.261Z,99722.00
2023-04-24T07:42:13.887Z,99725.63
2023-04-24T07:45:00.899Z,99722.06
2023-04-24T07:47:47.601Z,99729.91
2023-04-24T07:50:35.900Z,99727.25
2023-04-24T07:53:22.405Z,99724.84
2023-04-24T07:56:09.202Z,99727.13
2023-04-24T07:58:55.956Z,99726.41
2023-04-24T08:01:42.806Z,99725.63
2023-04-24T08:04:29.691Z,99727.00
2023-04-24T08:07:18.082Z,99725.13
2023-04-24T08:10:05.100Z,99718.66
2023-04-24T08:12:51.973Z,99722.81
2023-04-24T08:15:38.831Z,99712.53
2023-04-24T08:18:25.810Z,99721.63
2023-04-24T08:21:14.030Z,99718.63
2023-04-24T08:24:06.123Z,99715.97
2023-04-24T08:26:53.283Z,99713.50
2023-04-24T08:29:40.251Z,99719.56
2023-04-24T08:32:28.950Z,99719.41
2023-04-24T08:35:15.360Z,99722.72
2023-04-24T08:38:02.193Z,99725.53
2023-04-24T08:40:51.103Z,99726.50
2023-04-24T08:43:39.089Z,99719.53
2023-04-24T08:46:26.734Z,99729.50
2023-04-24T08:49:14.661Z,99726.13
2023-04-24T08:52:02.244Z,99726.28
2023-04-24T08:54:49.448Z,99720.16
2023-04-24T08:57:41.101Z,99719.38
2023-04-24T09:00:28.290Z,99720.19
2023-04-24T09:03:16.690Z,99721.78
2023-04-24T09:06:04.550Z,99715.03
2023-04-24T09:08:54.838Z,99673.97
2023-04-24T09:11:42.071Z,99724.47
2023-04-24T09:14:33.000Z,99724.22
2023-04-24T09:20:07.980Z,99717.13
2023-04-24T09:22:57.314Z,99723.75
2023-04-24T09:25:43.833Z,99727.88
2023-04-24T09:28:34.258Z,99725.94
2023-04-24T09:31:23.820Z,99725.75
2023-04-24T09:34:10.723Z,99726.16
2023-04-24T09:36:57.182Z,99733.78
2023-04-24T09:39:44.139Z,99733.91
2023-04-24T09:42:31.611Z,99723.84
2023-04-24T09:45:18.832Z,99736.19
2023-04-24T09:48:07.510Z,99742.38
2023-04-24T09:50:54.629Z,99743.59
2023-04-24T09:53:41.508Z,99739.09
2023-04-24T09:56:35.492Z,99741.84
2023-04-24T09:59:22.139Z,99738.75
2023-04-24T10:02:19.481Z,99744.78
2023-04-24T10:05:08.669Z,99740.19
2023-04-24T10:07:59.200Z,99742.34
2023-04-24T10:10:47.366Z,99745.25
2023-04-24T10:13:34.941Z,99749.44
2023-04-24T10:16:23.468Z,99747.22
2023-04-24T10:19:10.410Z,99740.81
2023-04-24T10:21:59.421Z,99740.56
2023-04-24T10:24:47.486Z,99739.81
2023-04-24T10:27:34.759Z,99724.88
2023-04-24T10:30:22.311Z,99737.66
2023-04-24T10:33:10.822Z,99742.53
2023-04-24T10:35:59.476Z,99739.78
2023-04-24T10:38:50.243Z,99738.59
2023-04-24T10:41:39.823Z,99739.94
2023-04-24T10:44:26.573Z,99739.66
2023-04-24T10:47:16.049Z,99739.50
2023-04-24T10:50:04.128Z,99737.56
2023-04-24T10:52:52.447Z,99735.63
2023-04-24T10:55:44.462Z,99739.78
2023-04-24T10:58:39.605Z,99733.97
2023-04-24T11:01:28.398Z,99730.44
2023-04-24T11:04:15.649Z,99725.59
2023-04-24T11:07:02.309Z,99719.94
2023-04-24T11:10:02.147Z,99730.72
2023-04-24T11:12:49.814Z,99735.19
2023-04-24T11:15:36.592Z,99733.56
2023-04-24T11:18:25.639Z,99733.13
2023-04-24T11:21:13.392Z,99720.03
2023-04-24T11:24:00.074Z,99727.13
2023-04-24T11:26:47.122Z,99723.34
2023-04-24T11:29:46.335Z,99726.06
2023-04-24T11:32:37.840Z,99729.63
2023-04-24T11:35:26.215Z,99730.91
2023-04-24T11:38:24.255Z,99730.66
2023-04-24T11:41:12.330Z,99729.66
2023-04-24T11:43:59.988Z,99723.19
2023-04-24T11:46:47.993Z,99717.75
2023-04-24T11:49:34.817Z,99722.16
2023-04-24T11:52:21.680Z,99716.34
2023-04-24T11:55:10.077Z,99721.03
2023-04-24T11:57:58.986Z,99712.44
2023-04-24T12:00:46.801Z,99721.59
2023-04-24T12:03:35.089Z,99719.44
2023-04-24T12:06:22.390Z,99721.72
2023-04-24T12:09:17.797Z,99725.03
2023-04-24T12:12:08.483Z,99728.31
2023-04-24T12:14:57.044Z,99721.97
2023-04-24T12:17:44.844Z,99707.47
2023-04-24T12:20:37.304Z,99742.13
2023-04-24T12:23:37.370Z,99749.50
2023-04-24T12:26:25.659Z,99767.44
2023-04-24T12:29:13.345Z,99761.22
2023-04-24T12:31:59.758Z,99760.13
2023-04-24T12:34:47.236Z,99754.06
2023-04-24T12:37:37.546Z,99746.31
2023-04-24T12:40:27.424Z,99731.81
2023-04-24T12:43:18.658Z,99732.91
2023-04-24T12:46:05.903Z,99718.66
2023-04-24T12:48:54.329Z,99712.66
2023-04-24T12:51:41.316Z,99710.66
2023-04-24T12:54:34.782Z,99719.66
2023-04-24T12:57:25.009Z,99708.66
2023-04-24T13:00:12.993Z,99704.88
2023-04-24T13:03:06.561Z,99691.97
2023-04-24T13:05:57.053Z,99689.56
2023-04-24T13:08:43.488Z,99691.97
2023-04-24T13:11:31.689Z,99668.75
2023-04-24T13:14:18.477Z,99682.91
2023-04-24T13:17:12.172Z,99665.94
2023-04-24T13:19:58.553Z,99655.75
2023-04-24T13:22:45.217Z,99659.97
2023-04-24T13:25:36.950Z,99596.66
2023-04-24T13:28:28.737Z,99647.38
2023-04-24T13:31:15.921Z,99653.34
2023-04-24T13:34:03.312Z,99662.09
2023-04-24T13:36:51.418Z,99666.34
2023-04-24T13:39:39.444Z,99678.75
2023-04-24T13:42:26.249Z,99679.53
2023-04-24T13:45:24.577Z,99685.56
2023-04-24T13:48:12.100Z,99684.97
2023-04-24T13:51:01.979Z,99686.56
2023-04-24T13:53:48.688Z,99681.88
2023-04-24T13:56:35.734Z,99664.84
2023-04-24T13:59:22.881Z,99678.25
2023-04-24T14:02:11.805Z,99682.69
2023-04-24T14:05:00.239Z,99676.53
2023-04-24T14:07:46.792Z,99680.53
2023-04-24T14:10:33.784Z,99683.03
2023-04-24T14:13:20.601Z,99682.22
2023-04-24T14:16:08.543Z,99682.28
2023-04-24T14:18:57.323Z,99684.97
2023-04-24T14:21:44.140Z,99670.59
2023-04-24T14:24:30.954Z,99674.09
2023-04-24T14:27:17.737Z,99670.31
2023-04-24T14:30:05.531Z,99660.41
2023-04-24T14:32:52.286Z,99666.06
2023-04-24T14:35:40.082Z,99673.97
2023-04-24T14:38:26.759Z,99672.13
2023-04-24T14:41:14.359Z,99618.28
2023-04-24T14:44:01.217Z,99670.41
2023-04-24T14:46:48.011Z,99673.13
2023-04-24T14:49:34.776Z,99672.56
2023-04-24T14:52:23.040Z,99671.72
2023-04-24T14:55:10.342Z,99680.03
2023-04-24T14:57:57.194Z,99677.03
2023-04-24T15:00:43.857Z,99678.59
2023-04-24T15:03:30.984Z,99686.88
2023-04-24T15:06:18.036Z,99687.69
2023-04-24T15:09:06.071Z,99684.47
2023-04-24T15:11:53.404Z,99689.84
2023-04-24T15:14:39.848Z,99675.34
2023-04-24T15:17:26.539Z,99682.41
2023-04-24T15:20:13.192Z,99685.00
2023-04-24T15:23:00.911Z,99685.69
2023-04-24T15:25:49.357Z,99691.66
2023-04-24T15:28:36.227Z,99690.47
2023-04-24T15:31:24.073Z,99686.44
2023-04-24T15:34:10.865Z,99688.34
2023-04-24T15:36:57.792Z,99685.53
2023-04-24T15:39:47.049Z,99677.38
2023-04-24T15:42:35.297Z,99688.94
2023-04-24T15:45:22.167Z,99692.97
2023-04-24T15:48:08.988Z,99702.56
2023-04-24T15:50:55.748Z,99703.25
2023-04-24T15:53:42.542Z,99708.66
2023-04-24T15:56:31.461Z,99724.97
2023-04-24T15:59:20.178Z,99707.31
2023-04-24T16:02:07.352Z,99716.97
2023-04-24T16:04:54.929Z,99729.88
2023-04-24T16:07:41.702Z,99730.13
2023-04-24T16:10:28.591Z,99736.47
2023-04-24T16:13:15.418Z,99736.97
2023-04-24T16:16:03.479Z,99738.94
2023-04-24T16:18:50.516Z,99740.06
2023-04-24T16:21:37.704Z,99741.25
2023-04-24T16:24:24.532Z,99746.38
2023-04-24T16:27:11.140Z,99737.34
2023-04-24T16:29:58.067Z,99744.31
2023-04-24T16:32:46.328Z,99746.38
2023-04-24T16:35:33.050Z,99739.94
2023-04-24T16:38:19.632Z,99746.38
2023-04-24T16:41:06.779Z,99742.72
2023-04-24T16:43:53.433Z,99745.13
2023-04-24T16:46:40.120Z,99737.94
2023-04-24T16:49:31.193Z,99735.53
2023-04-24T16:52:17.966Z,99745.91
2023-04-24T16:55:05.136Z,99745.47
2023-04-24T16:57:51.581Z,99750.84
2023-04-24T17:00:38.652Z,99748.19
2023-04-24T17:03:25.449Z,99753.91
2023-04-24T17:06:13.456Z,99762.75
2023-04-24T17:09:00.960Z,99782.81
2023-04-24T17:11:47.564Z,99775.13
2023-04-24T17:14:34.383Z,99791.81
2023-04-24T17:17:23.185Z,99797.38
2023-04-24T17:20:21.463Z,99786.22
2023-04-24T17:23:12.079Z,99800.13
2023-04-24T17:25:58.822Z,99802.69
2023-04-24T17:28:45.654Z,99799.28
2023-04-24T17:31:32.345Z,99809.75
2023-04-24T17:34:19.014Z,99816.38
2023-04-24T17:37:05.801Z,99813.38
2023-04-24T17:39:54.147Z,99815.28
2023-04-24T17:42:41.630Z,99823.91
2023-04-24T17:45:28.073Z,99824.41
2023-04-24T17:48:15.630Z,99828.16
2023-04-24T17:51:02.211Z,99834.91
2023-04-24T17:53:49.519Z,99846.13
2023-04-24T17:56:37.769Z,99834.69
2023-04-24T17:59:24.611Z,99843.63
2023-04-24T18:02:11.200Z,99856.50
2023-04-24T18:04:57.845Z,99863.19
2023-04-24T18:07:44.693Z,99864.56
2023-04-24T18:10:32.855Z,99871.25
2023-04-24T18:13:20.932Z,99878.81
2023-04-24T18:16:07.785Z,99883.00
2023-04-24T18:18:54.958Z,99883.84
2023-04-24T18:21:41.712Z,99887.56
2023-04-24T18:24:28.302Z,99899.63
2023-04-24T18:27:15.109Z,99901.91
2023-04-24T18:30:03.764Z,99871.81
2023-04-24T18:32:50.797Z,99912.09
2023-04-24T18:35:37.694Z,99924.16
2023-04-24T18:38:26.016Z,99923.88
2023-04-24T18:41:14.272Z,99928.47
2023-04-24T18:44:01.489Z,99933.25
2023-04-24T18:46:49.740Z,99939.78
2023-04-24T18:49:36.696Z,99942.94
2023-04-24T18:52:23.300Z,99958.00
2023-04-24T18:55:10.944Z,99965.91
2023-04-24T18:57:57.736Z,99953.91
2023-04-24T19:00:44.541Z,99972.78
2023-04-24T19:03:32.713Z,99978.44
2023-04-24T19:06:19.691Z,99980.91
2023-04-24T19:09:06.451Z,99995.06
2023-04-24T19:11:53.910Z,99993.19
2023-04-24T19:14:41.071Z,100012.88
2023-04-24T19:17:28.675Z,100006.50
2023-04-24T19:20:16.659Z,100014.94
2023-04-24T19:23:03.261Z,100018.91
2023-04-24T19:25:50.149Z,100008.44
2023-04-24T19:28:38.588Z,100023.75
2023-04-24T19:31:25.934Z,100025.16
2023-04-24T19:34:16.592Z,100023.22
2023-04-24T19:37:06.194Z,100015.00
2023-04-24T19:39:53.025Z,100026.72
2023-04-24T19:42:44.186Z,100029.47
2023-04-24T19:45:31.305Z,100017.38
2023-04-24T19:48:18.227Z,100028.06
2023-04-24T19:51:05.198Z,100035.34
2023-04-24T19:53:52.937Z,100025.78
2023-04-24T19:56:39.676Z,100043.81
2023-04-24T19:59:26.616Z,100035.75
2023-04-24T20:02:14.104Z,100038.19
2023-04-24T20:05:00.698Z,100037.03
2023-04-24T20:07:52.602Z,100036.00
2023-04-24T20:10:48.669Z,100031.34
2023-04-24T20:13:36.230Z,100030.41
2023-04-24T20:16:23.005Z,100040.72
2023-04-24T20:19:09.700Z,100039.38
2023-04-24T20:21:56.616Z,100029.06
2023-04-24T20:24:43.820Z,100042.78
2023-04-24T20:27:31.849Z,100038.28
2023-04-24T20:30:18.540Z,100035.63
2023-04-24T20:33:05.600Z,100042.34
2023-04-24T20:35:52.518Z,100043.59
2023-04-24T20:38:38.909Z,100042.72
2023-04-24T20:41:26.397Z,100039.84
2023-04-24T20:44:14.937Z,100044.13
2023-04-24T20:47:02.478Z,100056.47
2023-04-24T20:49:49.380Z,100043.56
2023-04-24T20:52:35.834Z,100049.22
2023-04-24T20:55:22.619Z,100043.13
2023-04-24T20:58:09.757Z,100050.16
2023-04-24T21:00:57.668Z,100052.47
2023-04-24T21:03:45.250Z,100046.84
2023-04-24T21:06:32.101Z,100046.56
2023-04-24T21:09:18.880Z,100052.03
2023-04-24T21:12:06.350Z,100047.59
2023-04-24T21:14:53.059Z,100050.81
2023-04-24T21:17:41.293Z,100048.97
2023-04-24T21:20:28.161Z,100047.25
2023-04-24T21:23:15.057Z,100047.38
2023-04-24T21:26:01.956Z,100042.44
2023-04-24T21:28:48.568Z,100036.28
2023-04-24T21:31:35.544Z,100044.00
2023-04-24T21:34:23.741Z,100037.28
2023-04-24T21:37:11.241Z,100041.16
2023-04-24T21:39:57.859Z,100041.84
2023-04-24T21:42:44.822Z,100045.94
2023-04-24T21:45:31.473Z,100042.66
2023-04-24T21:48:18.300Z,100041.66
2023-04-24T21:51:06.527Z,100046.16
2023-04-24T21:53:53.070Z,100041.34
2023-04-24T21:56:41.481Z,100041.41
2023-04-24T21:59:28.416Z,100047.75
2023-04-24T22:02:15.365Z,100039.84
2023-04-24T22:05:04.594Z,100036.84
2023-04-24T22:07:54.579Z,100037.66
2023-04-24T22:10:42.400Z,100013.78
2023-04-24T22:13:30.358Z,100038.44
2023-04-24T22:16:18.112Z,100037.13
2023-04-24T22:19:05.088Z,100039.41
2023-04-24T22:21:51.913Z,100041.34
2023-04-24T22:24:40.175Z,100033.97
2023-04-24T22:27:26.816Z,100039.28
2023-04-24T22:30:13.880Z,100042.78
2023-04-24T22:33:00.508Z,100043.66
2023-04-24T22:35:47.126Z,100040.22
2023-04-24T22:38:34.054Z,100029.84
2023-04-24T22:41:22.887Z,100037.84
2023-04-24T22:44:09.432Z,100037.53
2023-04-24T22:46:56.344Z,100038.91
2023-04-24T22:49:44.241Z,100039.44
2023-04-24T22:52:30.965Z,100033.38
2023-04-24T22:55:18.123Z,100033.81
2023-04-24T22:58:06.518Z,100032.47
2023-04-24T23:00:58.290Z,100037.59
2023-04-24T23:03:46.301Z,100037.94
2023-04-24T23:06:32.840Z,100036.22
2023-04-24T23:09:19.753Z,100043.25
2023-04-24T23:12:10.369Z,100046.84
2023-04-24T23:14:58.669Z,100027.41
2023-04-24T23:17:45.380Z,100031.00
2023-04-24T23:20:32.324Z,100037.91
2023-04-24T23:23:19.632Z,100035.53
2023-04-24T23:26:07.381Z,100036.78
2023-04-24T23:28:54.427Z,100030.94
2023-04-24T23:31:42.767Z,100039.50
2023-04-24T23:34:29.437Z,100041.53
2023-04-24T23:37:19.703Z,100034.66
2023-04-24T23:40:09.825Z,100039.75
2023-04-24T23:43:06.263Z,100029.81
2023-04-24T23:45:53.050Z,100031.88
2023-04-24T23:48:41.069Z,100025.69
2023-04-24T23:51:28.038Z,100030.41
2023-04-24T23:54:14.635Z,100024.25
2023-04-24T23:57:01.499Z,100034.56
2023-04-24T23:59:48.403Z,100029.41
